Topeka, Kansas
Current Conditions -  °F | °C
As of 6:53 AM on Wednesday 26 Nov 2014 (Local Time) from KTOP Reporting Station
Overcast Overcast  
Wind Chill: 34°   Ceiling: 8500
Heat Index: 40°   Visibility: 10mi
Dew Point: 31°   Wind: 9mph
Humidity: 70%   Direction: 290°WNW
Pressure: 29.97"   Gusts: NA
Location:  39.06°N, 95.68°W
Report Text: KTOP 261253Z 29008KT 10SM OVC085 04/M01 A2997 RMK AO2 SLP153 T00441006
Loading
Personal Weather Stations






























Interactive Weather Map New forecast layout! Learn more

10-Day Weather Forecast

Advertisements
Track Severe Weather on mobile